Time;durP1;ratioP1;P1;durP2;ratioP2;P2;SDS_P1;SDS_P2;PMS_P1;PMS_P2;Temp;Humidity;BMP_temperature;BMP_pressure;BME280_temperature;BME280_humidity;BME280_pressure;Samples;Min_cycle;Max_cycle;Signal;HPM_P1;HPM_P2
2022/05/23 00:01:47;;;;;;;2.00;1.75;;;;;;;;;;6225675;23;20440;-50
2022/05/23 00:04:13;;;;;;;2.95;1.60;;;23.20;90.80;;;;;;6215942;23;20071;-49
2022/05/23 00:06:39;;;;;;;2.88;1.90;;;23.00;90.90;;;;;;6216043;23;20436;-50
2022/05/23 00:09:05;;;;;;;2.78;1.65;;;;;;;;;;6215936;23;20000;-61
2022/05/23 00:11:31;;;;;;;1.70;1.60;;;23.30;76.60;;;;;;6225677;23;20001;-61
2022/05/23 00:13:57;;;;;;;3.65;1.67;;;;;;;;;;6225653;23;20000;-61
2022/05/23 00:16:26;;;;;;;2.20;1.73;;;23.10;57.00;;;;;;6225599;23;20000;-61
2022/05/23 00:18:52;;;;;;;3.53;1.92;;;23.00;91.10;;;;;;6225589;23;20067;-61
2022/05/23 00:21:18;;;;;;;1.90;1.70;;;23.10;91.10;;;;;;6225443;23;20039;-61
2022/05/23 00:23:45;;;;;;;3.17;1.70;;;;;;;;;;6225573;23;20000;-61
2022/05/23 00:26:17;;;;;;;2.50;1.83;;;23.10;54.00;;;;;;6225466;23;20005;-50
2022/05/23 00:28:43;;;;;;;3.25;2.00;;;;;;;;;;6225663;23;20095;-49
2022/05/23 00:31:10;;;;;;;1.73;1.63;;;;;;;;;;6215382;23;20001;-49
2022/05/23 00:36:22;;;;;;;2.25;1.90;;;;;;;;;;6225471;23;20088;-49
2022/05/23 00:38:48;;;;;;;2.28;1.67;;;23.20;91.60;;;;;;6225533;23;20383;-50
2022/05/23 00:44:27;;;;;;;3.42;1.90;;;23.30;91.60;;;;;;6225481;23;20067;-51
2022/05/23 00:47:15;;;;;;;2.45;1.33;;;23.10;57.60;;;;;;6225447;23;19993;-50
2022/05/23 00:49:42;;;;;;;4.25;2.25;;;;;;;;;;6225357;23;19996;-51
2022/05/23 00:52:11;;;;;;;1.63;1.30;;;23.10;91.40;;;;;;6225207;23;19993;-51
2022/05/23 00:54:45;;;;;;;2.50;1.63;;;23.10;58.10;;;;;;6225278;23;20001;-50
2022/05/23 00:57:18;;;;;;;3.33;1.70;;;23.00;57.00;;;;;;6224942;23;20075;-48
2022/05/23 00:59:44;;;;;;;1.75;1.55;;;23.10;91.30;;;;;;6225196;23;20071;-48
2022/05/23 01:02:12;;;;;;;2.72;1.70;;;22.90;91.10;;;;;;6225224;23;20000;-61
2022/05/23 01:04:39;;;;;;;1.90;1.70;;;23.10;91.20;;;;;;6225228;23;19992;-61
2022/05/23 01:07:05;;;;;;;1.70;1.30;;;22.50;55.30;;;;;;6225157;23;19997;-61
2022/05/23 01:09:31;;;;;;;1.52;1.42;;;23.00;90.90;;;;;;6225098;23;19993;-61
2022/05/23 01:11:59;;;;;;;2.08;1.42;;;23.00;91.30;;;;;;6225135;23;20000;-61
2022/05/23 01:14:26;;;;;;;2.85;1.55;;;23.00;55.50;;;;;;6225055;23;20000;-61
2022/05/23 01:16:52;;;;;;;1.60;1.27;;;22.80;91.30;;;;;;6214948;23;19993;-61
2022/05/23 01:19:18;;;;;;;1.80;1.70;;;23.10;91.20;;;;;;6215328;23;20336;-61
2022/05/23 01:21:57;;;;;;;2.70;1.92;;;23.10;91.20;;;;;;6225091;23;20017;-61
2022/05/23 01:24:42;;;;;;;1.83;1.60;;;21.90;53.50;;;;;;6215199;23;19992;-61
2022/05/23 01:27:08;;;;;;;2.90;1.77;;;23.00;55.40;;;;;;6224625;23;20040;-61
2022/05/23 01:29:34;;;;;;;1.98;1.75;;;;;;;;;;6224929;23;19996;-61
2022/05/23 01:32:00;;;;;;;2.97;1.70;;;23.00;91.30;;;;;;6224958;23;20001;-61
2022/05/23 01:34:26;;;;;;;1.88;1.63;;;23.00;91.30;;;;;;6224811;23;20001;-61
2022/05/23 01:36:52;;;;;;;4.00;1.98;;;;;;;;;;6221032;23;20005;-60
2022/05/23 01:39:18;;;;;;;3.20;1.63;;;23.00;91.10;;;;;;6224925;23;19997;-61
2022/05/23 01:41:44;;;;;;;1.40;1.30;;;22.70;91.10;;;;;;6224815;23;20039;-61
2022/05/23 01:44:09;;;;;;;3.05;1.58;;;23.10;91.20;;;;;;6224806;23;20004;-61
2022/05/23 01:46:35;;;;;;;2.50;1.90;;;23.00;91.50;;;;;;6224728;23;20004;-61
2022/05/23 01:49:01;;;;;;;3.13;1.83;;;;;;;;;;6224781;23;20429;-60
2022/05/23 01:51:28;;;;;;;2.45;1.58;;;;;;;;;;6224662;23;20000;-61
2022/05/23 01:53:54;;;;;;;4.40;1.70;;;;;;;;;;6214964;23;20071;-61
2022/05/23 01:56:20;;;;;;;1.98;1.65;;;;;;;;;;6214948;23;20007;-61
2022/05/23 02:01:30;;;;;;;2.67;1.50;;;;;;;;;;6224548;23;20071;-61
2022/05/23 02:03:55;;;;;;;2.65;1.65;;;23.20;91.70;;;;;;6224639;23;20008;-61
2022/05/23 02:06:21;;;;;;;2.45;1.95;;;22.40;73.00;;;;;;6224560;23;20007;-61
2022/05/23 02:08:47;;;;;;;2.53;1.63;;;22.90;91.30;;;;;;6224068;23;20483;-61
2022/05/23 02:11:13;;;;;;;2.00;1.77;;;;;;;;;;6224582;23;20004;-61
2022/05/23 02:13:41;;;;;;;2.55;1.77;;;22.90;57.80;;;;;;6224425;23;19997;-61
2022/05/23 02:16:08;;;;;;;2.35;1.83;;;22.70;91.50;;;;;;6214879;23;20356;-61
2022/05/23 02:18:33;;;;;;;2.92;1.77;;;22.90;91.60;;;;;;6214818;23;20280;-61
2022/05/23 02:20:59;;;;;;;1.42;1.33;;;;;;;;;;6224367;23;20079;-61
2022/05/23 02:23:25;;;;;;;2.53;1.40;;;;;;;;;;6224530;23;20490;-61
2022/05/23 02:25:51;;;;;;;2.15;1.48;;;22.90;55.90;;;;;;6224372;23;20001;-61
2022/05/23 02:28:18;;;;;;;3.75;1.80;;;22.80;91.60;;;;;;6224298;23;20340;-61
2022/05/23 02:30:48;;;;;;;2.53;1.60;;;22.90;58.00;;;;;;6224505;23;20008;-61
2022/05/23 02:33:14;;;;;;;;;;;22.80;58.70;;;;;;6225079;23;20008;-61
2022/05/23 02:35:40;;;;;;;2.60;1.50;;;23.10;91.90;;;;;;6224616;23;19904;-61
2022/05/23 02:38:06;;;;;;;5.13;2.17;;;;;;;;;;6214345;23;20011;-61
2022/05/23 02:40:32;;;;;;;1.88;1.65;;;22.80;91.60;;;;;;6214666;23;20013;-61
2022/05/23 02:42:58;;;;;;;2.00;1.80;;;;;;;;;;6224505;23;20001;-61
2022/05/23 02:45:24;;;;;;;1.95;1.63;;;22.80;65.80;;;;;;6214738;23;20024;-61
2022/05/23 02:47:49;;;;;;;3.88;1.45;;;23.10;91.30;;;;;;6224409;23;20007;-61
2022/05/23 02:50:15;;;;;;;3.03;2.10;;;23.00;91.50;;;;;;6214673;23;20319;-61
2022/05/23 02:52:43;;;;;;;2.05;1.73;;;23.20;74.10;;;;;;6224417;23;20058;-61
2022/05/23 02:55:10;;;;;;;1.85;1.70;;;22.90;74.80;;;;;;6214730;23;19993;-60
2022/05/23 02:57:36;;;;;;;3.53;1.98;;;22.60;91.10;;;;;;6224336;23;20092;-61
2022/05/23 03:00:05;;;;;;;2.53;1.80;;;23.10;91.30;;;;;;6224238;23;19997;-60
2022/05/23 03:05:15;;;;;;;1.80;1.70;;;;;;;;;;6224519;23;20054;-61
2022/05/23 03:07:41;;;;;;;2.72;1.85;;;22.60;80.70;;;;;;6224328;23;20039;-60
2022/05/23 03:10:08;;;;;;;1.50;1.33;;;22.80;91.00;;;;;;6214575;23;20048;-61
2022/05/23 03:12:34;;;;;;;2.80;1.75;;;22.90;91.10;;;;;;6214694;23;20000;-61
2022/05/23 03:15:00;;;;;;;3.30;1.80;;;;;;;;;;6224204;23;20000;-61
2022/05/23 03:17:25;;;;;;;1.65;1.55;;;23.00;91.40;;;;;;6214537;23;20035;-61
2022/05/23 03:19:51;;;;;;;2.92;2.05;;;22.60;91.20;;;;;;6224917;23;19996;-60
2022/05/23 03:27:46;;;;;;;2.90;1.85;;;22.90;91.40;;;;;;6225924;23;20043;-60
2022/05/23 03:30:11;;;;;;;2.83;1.80;;;23.00;90.70;;;;;;6226175;23;19997;-49
2022/05/23 03:32:39;;;;;;;2.47;1.27;;;23.10;91.30;;;;;;6226499;23;20324;-49
2022/05/23 03:35:07;;;;;;;2.30;1.60;;;22.80;91.00;;;;;;6216208;23;20000;-48
2022/05/23 03:37:33;;;;;;;2.35;1.60;;;;;;;;;;6226025;23;20001;-49
2022/05/23 03:39:59;;;;;;;2.67;1.92;;;;;;;;;;6216067;23;20374;-50
2022/05/23 03:42:25;;;;;;;3.13;1.90;;;;;;;;;;6225963;23;20068;-50
2022/05/23 03:44:50;;;;;;;3.00;1.70;;;22.40;91.40;;;;;;6225958;23;20000;-49
2022/05/23 03:47:16;;;;;;;2.35;1.80;;;22.90;91.70;;;;;;6225949;23;20036;-49
2022/05/23 03:49:41;;;;;;;3.25;1.95;;;22.70;91.60;;;;;;6225952;23;20012;-61
2022/05/23 03:52:07;;;;;;;1.95;1.65;;;;;;;;;;6225819;23;20064;-61
2022/05/23 03:54:34;;;;;;;2.20;1.65;;;;;;;;;;6225942;23;20002;-60
2022/05/23 03:57:00;;;;;;;3.28;1.85;;;22.60;91.30;;;;;;6225858;23;20000;-61
2022/05/23 03:59:27;;;;;;;3.60;1.80;;;23.30;60.70;;;;;;6225710;23;20011;-61
2022/05/23 04:06:31;;;;;;;1.70;1.60;;;23.10;91.50;;;;;;6225954;23;20386;-59
2022/05/23 04:08:57;;;;;;;2.55;1.73;;;;;;;;;;6225777;23;20058;-60
2022/05/23 04:11:23;;;;;;;2.20;1.92;;;;;;;;;;6225777;23;20012;-61
2022/05/23 04:13:48;;;;;;;4.18;2.00;;;22.40;91.40;;;;;;6216070;23;20447;-59
2022/05/23 04:16:14;;;;;;;4.13;1.70;;;23.00;91.70;;;;;;6225850;23;20489;-61
2022/05/23 04:18:40;;;;;;;1.98;1.75;;;22.70;91.40;;;;;;6216084;23;20004;-61
2022/05/23 04:21:06;;;;;;;1.70;1.60;;;22.80;91.80;;;;;;6215974;23;20071;-49
2022/05/23 04:23:31;;;;;;;2.45;1.65;;;22.70;91.50;;;;;;6225677;23;20416;-51
2022/05/23 04:26:01;;;;;;;2.40;1.90;;;22.70;57.70;;;;;;6225711;23;20004;-49
2022/05/23 04:28:27;;;;;;;2.50;1.80;;;;;;;;;;6225605;23;20027;-49
2022/05/23 04:30:53;;;;;;;2.00;1.42;;;;;;;;;;6225181;23;20000;-49
2022/05/23 04:36:04;;;;;;;1.95;1.80;;;22.20;91.60;;;;;;6225731;23;20015;-49
2022/05/23 04:38:29;;;;;;;2.67;1.40;;;22.70;91.70;;;;;;6225596;23;19996;-49
2022/05/23 04:40:55;;;;;;;2.30;1.70;;;;;;;;;;6225473;23;20013;-49
2022/05/23 04:43:21;;;;;;;2.15;1.88;;;;;;;;;;6225584;23;20000;-50
2022/05/23 04:45:48;;;;;;;2.58;1.80;;;;;;;;;;6215689;23;20008;-49
2022/05/23 04:50:57;;;;;;;2.38;1.63;;;22.80;91.60;;;;;;6215516;23;20019;-50
2022/05/23 04:53:24;;;;;;;2.78;1.58;;;;;;;;;;6225460;23;20374;-50
2022/05/23 04:55:49;;;;;;;2.08;1.80;;;22.80;91.60;;;;;;6215645;23;20004;-50
2022/05/23 04:58:15;;;;;;;2.08;1.88;;;;;;;;;;6215687;23;20008;-49
2022/05/23 05:00:42;;;;;;;2.25;1.50;;;22.60;58.70;;;;;;6225167;23;20007;-50
2022/05/23 05:03:08;;;;;;;1.50;1.35;;;23.00;91.70;;;;;;6225053;23;20013;-50
2022/05/23 05:05:35;;;;;;;2.20;1.45;;;22.70;91.80;;;;;;6225295;23;20327;-50
2022/05/23 05:08:02;;;;;;;2.65;1.77;;;23.00;65.80;;;;;;6215561;23;20004;-49
2022/05/23 05:10:28;;;;;;;1.73;1.60;;;23.00;92.00;;;;;;6225257;23;20005;-48
2022/05/23 05:12:55;;;;;;;1.70;1.60;;;23.00;91.90;;;;;;6225309;23;20483;-50
2022/05/23 05:15:22;;;;;;;3.08;1.70;;;22.70;58.00;;;;;;6225295;23;20039;-49
2022/05/23 05:17:48;;;;;;;2.50;1.90;;;23.00;91.70;;;;;;6214999;23;19993;-49
2022/05/23 05:20:16;;;;;;;3.35;1.77;;;23.00;91.60;;;;;;6224587;23;20008;-47
2022/05/23 05:22:41;;;;;;;2.47;1.63;;;23.00;91.40;;;;;;6225016;23;20001;-49
2022/05/23 05:25:09;;;;;;;3.00;1.90;;;22.70;79.50;;;;;;6215320;23;20348;-47
2022/05/23 05:27:35;;;;;;;2.38;1.65;;;22.70;56.10;;;;;;6224912;23;19996;-48
2022/05/23 05:30:02;;;;;;;4.20;1.35;;;;;;;;;;6224863;23;19992;-49
2022/05/23 05:32:54;;;;;;;2.58;1.45;;;22.90;91.30;;;;;;6224920;23;20332;-50
2022/05/23 05:35:27;;;;;;;3.03;1.63;;;22.80;91.20;;;;;;6214782;23;20132;-51
2022/05/23 05:38:00;;;;;;;2.65;2.05;;;22.60;56.80;;;;;;6215001;23;19992;-49
2022/05/23 05:40:28;;;;;;;1.88;1.30;;;22.80;91.00;;;;;;6224700;23;20436;-51
2022/05/23 05:43:01;;;;;;;2.92;1.75;;;22.70;54.20;;;;;;6224623;23;20054;-51
2022/05/23 05:45:33;;;;;;;2.05;1.52;;;22.70;57.00;;;;;;6224567;23;19996;-50
2022/05/23 05:47:59;;;;;;;3.58;1.98;;;;;;;;;;6215030;23;20007;-53
2022/05/23 05:50:30;;;;;;;1.58;1.45;;;22.70;57.10;;;;;;6224674;23;20043;-52
2022/05/23 05:53:01;;;;;;;2.00;1.67;;;23.10;91.30;;;;;;6224749;23;19997;-52
2022/05/23 05:55:27;;;;;;;2.40;1.60;;;22.90;91.40;;;;;;6224886;23;19996;-52
2022/05/23 05:57:52;;;;;;;2.33;1.83;;;22.90;73.10;;;;;;6224625;23;20067;-53
2022/05/23 06:00:19;;;;;;;6.32;1.88;;;23.00;92.00;;;;;;6224694;23;20036;-49
2022/05/23 06:02:46;;;;;;;5.43;1.88;;;;;;;;;;6224299;23;20020;-48
2022/05/23 06:05:11;;;;;;;5.95;2.00;;;22.50;76.80;;;;;;6224596;23;20304;-49
2022/05/23 06:13:17;;;;;;;3.17;1.90;;;;;;;;;;6092053;23;20017;-49
2022/05/23 06:15:44;;;;;;;4.95;1.90;;;22.80;59.90;;;;;;6214979;23;20001;-51
2022/05/23 06:18:10;;;;;;;6.00;1.77;;;23.00;92.60;;;;;;6224594;23;20059;-49
2022/05/23 06:20:36;;;;;;;2.03;1.70;;;22.80;92.30;;;;;;6224641;23;20028;-49
2022/05/23 06:23:02;;;;;;;2.80;1.50;;;23.10;92.30;;;;;;6224698;23;20335;-49
2022/05/23 06:25:28;;;;;;;7.47;1.75;;;22.90;92.40;;;;;;6224687;23;20312;-50
2022/05/23 06:27:54;;;;;;;4.15;1.55;;;23.10;92.30;;;;;;6214821;23;20400;-49
2022/05/23 06:30:20;;;;;;;5.47;2.08;;;23.10;92.60;;;;;;6214938;23;20000;-49
2022/05/23 06:32:46;;;;;;;3.38;1.85;;;;;;;;;;6214805;23;20043;-48
2022/05/23 06:35:13;;;;;;;2.10;1.58;;;22.60;92.20;;;;;;6214864;23;19998;-48
2022/05/23 06:37:41;;;;;;;2.40;1.80;;;22.80;59.20;;;;;;6224651;23;19993;-48
2022/05/23 06:40:09;;;;;;;3.42;2.00;;;22.80;59.20;;;;;;6224480;23;20012;-48
2022/05/23 06:42:35;;;;;;;5.00;1.55;;;23.00;79.30;;;;;;6214430;23;19996;-49
2022/05/23 06:45:02;;;;;;;3.58;1.70;;;22.80;59.00;;;;;;6224388;23;19993;-50
2022/05/23 06:47:28;;;;;;;2.45;1.58;;;22.90;92.20;;;;;;6224477;23;20000;-49
2022/05/23 06:49:54;;;;;;;1.80;1.70;;;22.90;88.50;;;;;;6224383;23;20428;-50
2022/05/23 06:52:20;;;;;;;3.03;1.55;;;23.00;92.20;;;;;;6224408;23;20483;-49
2022/05/23 06:54:46;;;;;;;1.23;1.13;;;;;;;;;;6225106;23;19997;-48
2022/05/23 06:57:12;;;;;;;6.50;1.90;;;23.00;92.00;;;;;;6216476;23;20312;-48
2022/05/23 06:59:38;;;;;;;2.90;1.30;;;;;;;;;;6226248;23;20023;-48
2022/05/23 07:02:06;;;;;;;2.47;1.65;;;23.00;92.20;;;;;;6225900;23;20070;-49
2022/05/23 07:12:47;;;;;;;2.75;1.50;;;;;;;;;;6226352;23;20051;-51
2022/05/23 07:15:12;;;;;;;2.92;1.58;;;23.00;91.70;;;;;;6216196;23;20428;-51
2022/05/23 07:17:38;;;;;;;2.65;1.60;;;22.90;91.80;;;;;;6226046;23;20003;-51
2022/05/23 07:20:05;;;;;;;3.95;1.50;;;23.00;91.70;;;;;;6226316;23;20080;-51
2022/05/23 07:22:31;;;;;;;1.98;1.48;;;;;;;;;;6226460;23;20004;-51
2022/05/23 07:24:58;;;;;;;4.25;1.60;;;23.10;91.60;;;;;;6226248;23;19993;-48
2022/05/23 07:27:28;;;;;;;2.65;1.63;;;23.20;91.50;;;;;;6216115;23;20004;-49
2022/05/23 07:29:54;;;;;;;2.15;1.48;;;22.50;91.20;;;;;;6226303;23;20072;-49
2022/05/23 07:32:20;;;;;;;2.65;1.65;;;;;;;;;;6216192;23;20020;-50
2022/05/23 07:34:46;;;;;;;3.90;1.80;;;23.10;91.60;;;;;;6216403;23;20431;-50
2022/05/23 07:37:12;;;;;;;2.63;1.60;;;22.50;91.50;;;;;;6226185;23;20003;-49
2022/05/23 07:39:41;;;;;;;1.98;1.48;;;23.10;91.80;;;;;;6226109;23;20011;-49
2022/05/23 07:42:07;;;;;;;3.08;1.45;;;23.10;91.90;;;;;;6216425;23;20366;-49
2022/05/23 07:44:34;;;;;;;3.30;1.85;;;;;;;;;;6226067;23;20001;-49
2022/05/23 07:47:00;;;;;;;2.13;1.60;;;;;;;;;;6226096;23;20035;-49
2022/05/23 07:49:27;;;;;;;4.97;2.10;;;23.10;92.10;;;;;;6226001;23;19992;-49
2022/05/23 07:51:55;;;;;;;5.30;1.83;;;23.10;92.10;;;;;;6216318;23;20059;-49
2022/05/23 08:02:34;;;;;;;4.05;2.00;;;22.90;91.40;;;;;;6225732;23;20023;-58
2022/05/23 08:04:59;;;;;;;4.35;1.65;;;23.00;91.80;;;;;;6225975;23;20067;-59
2022/05/23 08:07:28;;;;;;;3.03;1.70;;;22.80;61.20;;;;;;6215543;23;19997;-58
2022/05/23 08:09:55;;;;;;;3.13;1.50;;;23.10;92.00;;;;;;6225962;23;20513;-58
2022/05/23 08:12:20;;;;;;;3.28;1.75;;;23.20;92.20;;;;;;6225868;23;20328;-60
2022/05/23 08:14:46;;;;;;;3.85;1.60;;;;;;;;;;6225951;23;20004;-60
2022/05/23 08:17:12;;;;;;;3.35;1.50;;;;;;;;;;6216052;23;20007;-58
2022/05/23 08:19:38;;;;;;;1.95;1.48;;;;;;;;;;6225604;23;20004;-58
2022/05/23 08:22:05;;;;;;;3.40;2.20;;;23.00;91.60;;;;;;6225589;23;20005;-60
2022/05/23 08:24:30;;;;;;;3.28;2.13;;;23.10;91.80;;;;;;6215887;23;20043;-59
2022/05/23 08:26:56;;;;;;;3.45;2.10;;;23.10;92.10;;;;;;6225755;23;20320;-58
2022/05/23 08:29:21;;;;;;;3.03;1.70;;;23.00;92.00;;;;;;6216007;23;20477;-60
2022/05/23 08:31:48;;;;;;;1.70;1.60;;;23.00;58.00;;;;;;6225628;23;20004;-57
2022/05/23 08:34:14;;;;;;;1.88;1.33;;;22.90;91.70;;;;;;6215938;23;20070;-60
2022/05/23 08:36:39;;;;;;;1.85;1.60;;;22.90;91.70;;;;;;6215948;23;19996;-59
2022/05/23 08:39:05;;;;;;;2.17;1.65;;;23.00;82.20;;;;;;6225630;23;19997;-58
2022/05/23 08:41:31;;;;;;;2.08;1.45;;;;;;;;;;6225455;23;20009;-60
2022/05/23 08:44:14;;;;;;;3.42;1.45;;;23.10;59.10;;;;;;6225555;23;20402;-60
2022/05/23 08:46:56;;;;;;;3.50;1.55;;;23.10;91.80;;;;;;6225483;23;20007;-60
2022/05/23 08:49:34;;;;;;;2.45;1.50;;;23.10;91.90;;;;;;6224733;23;20427;-60
2022/05/23 08:52:05;;;;;;;2.70;1.77;;;23.10;91.80;;;;;;6215252;23;19996;-60
2022/05/23 08:54:39;;;;;;;5.93;1.67;;;23.10;55.30;;;;;;6225615;23;20458;-60
2022/05/23 08:57:15;;;;;;;4.32;1.70;;;23.10;58.50;;;;;;6224642;23;19993;-61
2022/05/23 08:59:44;;;;;;;1.95;1.73;;;23.20;92.30;;;;;;6215634;23;20327;-61
2022/05/23 09:02:39;;;;;;;4.50;2.10;;;23.50;92.50;;;;;;6214662;23;20071;-60
2022/05/23 09:05:10;;;;;;;3.50;2.00;;;23.00;92.30;;;;;;6209866;23;20446;-61
2022/05/23 09:07:40;;;;;;;4.75;2.13;;;23.10;92.20;;;;;;6225384;23;20079;-61
2022/05/23 09:10:12;;;;;;;4.35;2.25;;;23.60;66.50;;;;;;6225294;23;20031;-61
2022/05/23 09:12:37;;;;;;;6.15;2.10;;;23.30;92.50;;;;;;6215119;23;20083;-61
2022/05/23 09:15:04;;;;;;;3.08;2.00;;;23.10;83.30;;;;;;6225299;23;20028;-60
2022/05/23 09:17:35;;;;;;;9.65;2.00;;;23.00;59.70;;;;;;6214819;23;20005;-60
2022/05/23 09:20:11;;;;;;;3.17;2.03;;;23.30;59.90;;;;;;6215402;23;20046;-59
2022/05/23 09:22:50;;;;;;;2.38;1.80;;;23.10;59.60;;;;;;6225263;23;20008;-60
2022/05/23 09:25:23;;;;;;;5.80;1.88;;;23.40;92.60;;;;;;6215559;23;19992;-59
2022/05/23 09:28:09;;;;;;;4.90;2.05;;;23.40;92.90;;;;;;6215388;23;20071;-60
2022/05/23 09:30:37;;;;;;;4.00;1.63;;;23.10;59.50;;;;;;6225166;23;20056;-60
2022/05/23 09:33:16;;;;;;;5.78;1.83;;;23.10;72.60;;;;;;6215442;23;20027;-60
2022/05/23 09:35:42;;;;;;;3.10;1.65;;;22.90;93.10;;;;;;6225025;23;20328;-59
2022/05/23 09:38:20;;;;;;;3.35;1.70;;;22.70;93.10;;;;;;6225110;23;19993;-60
2022/05/23 09:40:46;;;;;;;4.90;2.20;;;23.20;59.90;;;;;;6224912;23;20004;-60
2022/05/23 09:49:14;;;;;;;4.82;2.03;;;23.20;76.80;;;;;;6224802;23;20532;-60
2022/05/23 09:51:52;;;;;;;3.13;1.73;;;23.40;93.90;;;;;;6224882;23;20374;-59
2022/05/23 09:54:23;;;;;;;2.28;2.00;;;23.20;93.50;;;;;;6214949;23;20005;-60
2022/05/23 09:56:51;;;;;;;3.33;2.00;;;23.00;62.00;;;;;;6214922;23;19993;-60
2022/05/23 09:59:30;;;;;;;2.67;1.70;;;22.80;75.30;;;;;;6224642;23;20011;-60
2022/05/23 10:01:56;;;;;;;5.50;1.98;;;23.00;93.80;;;;;;6224221;23;20013;-58
2022/05/23 10:04:29;;;;;;;2.95;1.92;;;23.10;85.10;;;;;;6224616;23;20000;-60
2022/05/23 10:06:55;;;;;;;3.10;2.10;;;23.30;60.10;;;;;;6224667;23;20398;-60
2022/05/23 10:09:26;;;;;;;4.22;1.98;;;23.10;58.90;;;;;;6224700;23;20078;-60
2022/05/23 10:11:59;;;;;;;2.20;1.88;;;23.20;62.30;;;;;;6224662;23;20054;-60
2022/05/23 10:14:37;;;;;;;2.33;2.05;;;22.90;93.70;;;;;;6224848;23;20000;-60
2022/05/23 10:17:03;;;;;;;4.47;1.77;;;;;;;;;;6198089;23;20092;-60
2022/05/23 10:19:35;;;;;;;3.47;2.05;;;23.10;63.20;;;;;;6214957;23;20332;-60
2022/05/23 10:22:24;;;;;;;3.22;2.00;;;22.90;59.60;;;;;;6214817;23;20008;-60
2022/05/23 10:24:59;;;;;;;3.75;1.88;;;23.10;59.90;;;;;;6224702;23;19993;-60
2022/05/23 10:27:47;;;;;;;2.10;1.90;;;23.00;70.20;;;;;;6224682;23;20032;-60
2022/05/23 10:30:17;;;;;;;2.60;1.90;;;23.30;63.60;;;;;;6224382;23;20328;-59
2022/05/23 10:32:48;;;;;;;2.53;1.75;;;23.30;64.00;;;;;;6225068;23;19997;-59
2022/05/23 10:35:29;;;;;;;2.38;1.90;;;23.10;87.20;;;;;;6214367;23;20428;-59
2022/05/23 10:42:07;;;;;;;2.92;1.98;;;23.30;63.20;;;;;;6214838;23;20141;-60
2022/05/23 10:43:46;;;;;;;2.40;1.65;;;23.40;62.60;;;;;;6224753;23;20015;-60
2022/05/23 10:46:13;;;;;;;5.60;1.85;;;23.40;62.90;;;;;;6224652;23;20000;-51
2022/05/23 10:48:56;;;;;;;2.70;1.40;;;23.70;93.90;;;;;;6214848;23;20316;-51
2022/05/23 10:51:33;;;;;;;2.67;1.80;;;23.20;93.90;;;;;;6214564;23;19997;-50
2022/05/23 10:54:30;;;;;;;2.08;1.50;;;23.30;93.70;;;;;;6214890;23;20528;-53
2022/05/23 10:57:17;;;;;;;2.60;1.75;;;23.60;94.00;;;;;;6224697;23;20006;-50
2022/05/23 11:00:15;;;;;;;5.75;2.13;;;23.90;93.90;;;;;;6224608;23;20001;-49
2022/05/23 11:02:53;;;;;;;4.65;1.77;;;23.90;94.00;;;;;;6157550;23;20050;-51
2022/05/23 11:05:39;;;;;;;2.80;1.30;;;23.60;58.80;;;;;;6224508;23;20000;-52
2022/05/23 11:08:33;;;;;;;10.07;1.85;;;24.50;58.60;;;;;;6214728;23;20003;-51
2022/05/23 11:11:19;;;;;;;2.00;1.50;;;24.00;93.60;;;;;;6214734;23;20000;-51
2022/05/23 11:13:58;;;;;;;3.45;1.38;;;23.80;62.40;;;;;;6224472;23;19996;-51
2022/05/23 11:16:44;;;;;;;5.15;1.85;;;23.90;93.90;;;;;;6224473;23;20001;-52
2022/05/23 11:19:13;;;;;;;1.63;1.40;;;23.90;94.10;;;;;;6224413;23;20006;-52
2022/05/23 11:21:43;;;;;;;2.55;1.08;;;23.70;62.80;;;;;;6214616;23;20019;-51
2022/05/23 11:24:16;;;;;;;2.78;1.40;;;23.90;93.90;;;;;;6224423;23;19999;-51
2022/05/23 11:33:41;;;;;;;2.25;1.60;;;23.50;93.70;;;;;;6214691;23;20058;-50
2022/05/23 11:35:23;;;;;;;1.83;1.20;;;;;;;;;;6214252;23;20059;-50
2022/05/23 11:37:49;;;;;;;2.85;1.38;;;23.60;64.60;;;;;;6214250;23;20083;-50
2022/05/23 11:40:30;;;;;;;1.95;1.27;;;23.60;82.60;;;;;;6214762;23;20370;-52
2022/05/23 11:42:56;;;;;;;;;;;24.10;60.10;;;;;;6226623;23;20000;-51
2022/05/23 11:48:34;;;;;;;3.40;1.50;;;23.90;93.50;;;;;;6226181;23;20042;-51
2022/05/23 11:51:36;;;;;;;1.63;1.27;;;23.70;58.60;;;;;;6226166;23;20000;-50
2022/05/23 11:54:03;;;;;;;1.45;1.33;;;;;;;;;;6226055;23;20320;-52
2022/05/23 11:56:45;;;;;;;2.85;1.35;;;23.70;70.10;;;;;;6225941;23;20004;-51
2022/05/23 11:59:25;;;;;;;1.83;1.23;;;23.80;61.70;;;;;;6216389;23;20004;-51
2022/05/23 12:02:25;;;;;;;2.30;1.38;;;23.50;61.40;;;;;;6215651;23;20352;-54
2022/05/23 12:04:55;;;;;;;;;;;24.40;63.30;;;;;;6162282;23;20424;-54
2022/05/23 12:07:43;;;;;;;3.63;1.38;;;23.80;93.40;;;;;;6216065;23;20226;-50
2022/05/23 12:10:20;;;;;;;3.85;1.30;;;23.10;93.30;;;;;;6216190;23;20005;-51
2022/05/23 12:12:48;;;;;;;1.40;1.30;;;23.60;93.20;;;;;;6225919;23;20071;-51
2022/05/23 12:15:42;;;;;;;1.55;1.30;;;23.50;93.20;;;;;;6225857;23;19992;-51
2022/05/23 12:18:12;;;;;;;2.17;1.63;;;24.10;93.50;;;;;;6215722;23;20443;-52
2022/05/23 12:20:49;;;;;;;3.67;1.38;;;24.10;87.70;;;;;;6215448;23;20661;-50
2022/05/23 12:23:38;;;;;;;4.05;1.52;;;23.50;65.70;;;;;;6216000;23;20004;-49
2022/05/23 12:26:10;;;;;;;4.80;1.17;;;23.50;65.20;;;;;;6189087;23;20000;-49
2022/05/23 12:28:44;;;;;;;2.92;1.50;;;24.10;76.80;;;;;;6215958;23;20009;-52
2022/05/23 12:31:13;;;;;;;2.10;1.38;;;23.70;93.60;;;;;;6215852;23;20023;-50
2022/05/23 12:33:44;;;;;;;2.85;1.35;;;23.80;62.40;;;;;;6225893;23;20003;-53
2022/05/23 12:36:11;;;;;;;2.30;1.33;;;23.70;93.50;;;;;;6226218;23;20008;-51
2022/05/23 12:39:05;;;;;;;1.52;1.30;;;23.70;68.80;;;;;;6216090;23;20001;-51
2022/05/23 12:42:00;;;;;;;1.42;1.30;;;24.00;58.30;;;;;;6215616;23;20012;-52
2022/05/23 12:44:42;;;;;;;1.45;1.25;;;23.80;93.10;;;;;;6225617;23;20023;-50
2022/05/23 12:47:35;;;;;;;4.07;1.55;;;23.90;93.10;;;;;;6188757;23;20435;-49
2022/05/23 12:50:31;;;;;;;5.70;1.40;;;24.10;58.10;;;;;;6215394;23;19997;-50
2022/05/23 12:53:06;;;;;;;0.80;0.80;;;25.00;58.50;;;;;;6225058;23;20008;-50
2022/05/23 12:55:49;;;;;;;2.78;1.35;;;24.00;92.00;;;;;;6215678;23;20001;-50
2022/05/23 12:58:42;;;;;;;1.20;1.10;;;24.10;58.20;;;;;;6225437;23;20005;-50
2022/05/23 13:01:11;;;;;;;2.53;1.40;;;23.90;92.80;;;;;;6225183;23;20009;-49
2022/05/23 13:03:53;;;;;;;9.93;1.50;;;24.00;93.00;;;;;;6225069;23;20020;-48
2022/05/23 13:06:28;;;;;;;3.20;1.13;;;24.30;69.70;;;;;;6225279;23;19997;-49
2022/05/23 13:09:17;;;;;;;3.05;1.50;;;23.60;72.30;;;;;;6215536;23;20080;-48
2022/05/23 13:11:48;;;;;;;1.17;1.08;;;24.10;93.10;;;;;;6214414;23;20001;-49
2022/05/23 13:14:14;;;;;;;2.17;1.67;;;24.10;93.10;;;;;;6225358;23;20001;-49
2022/05/23 13:16:50;;;;;;;1.75;1.30;;;23.70;92.90;;;;;;6225182;23;20023;-49
2022/05/23 13:22:13;;;;;;;2.05;1.40;;;23.70;92.60;;;;;;6225121;23;20027;-48
2022/05/23 13:24:54;;;;;;;2.45;1.50;;;23.80;58.30;;;;;;6215410;23;19997;-48
2022/05/23 13:27:33;;;;;;;6.57;1.38;;;23.70;78.50;;;;;;6215041;23;20067;-48
2022/05/23 13:30:06;;;;;;;2.73;1.50;;;24.10;93.20;;;;;;6225551;23;19997;-49
2022/05/23 13:32:32;;;;;;;1.70;1.48;;;;;;;;;;6224885;23;19997;-48
2022/05/23 13:35:14;;;;;;;3.08;1.60;;;23.60;60.60;;;;;;6224764;23;20000;-48
2022/05/23 13:37:40;;;;;;;2.00;1.73;;;23.30;91.00;;;;;;6214567;23;20001;-49
2022/05/23 13:40:10;;;;;;;2.85;1.50;;;23.60;93.20;;;;;;6188004;23;20001;-48
2022/05/23 13:42:36;;;;;;;4.25;1.63;;;;;;;;;;6215111;23;20339;-49
2022/05/23 13:45:13;;;;;;;3.03;1.33;;;24.10;93.20;;;;;;6224734;23;20024;-48
2022/05/23 13:47:44;;;;;;;2.58;1.70;;;23.80;61.50;;;;;;6224718;23;19999;-49
2022/05/23 13:50:17;;;;;;;3.75;1.70;;;23.90;93.20;;;;;;6214964;23;20005;-47
2022/05/23 13:52:55;;;;;;;2.95;1.48;;;23.80;93.00;;;;;;6224674;23;20027;-48
2022/05/23 13:55:31;;;;;;;2.22;1.95;;;22.20;57.80;;;;;;6224672;23;20028;-48
2022/05/23 13:58:07;;;;;;;4.93;1.77;;;23.80;61.20;;;;;;6224612;23;20007;-48
2022/05/23 14:00:37;;;;;;;3.45;1.80;;;23.70;61.30;;;;;;6224626;23;20000;-50
2022/05/23 14:03:09;;;;;;;2.35;1.33;;;24.30;64.90;;;;;;6224261;23;20019;-50
2022/05/23 14:05:41;;;;;;;2.53;1.73;;;23.70;61.40;;;;;;6214900;23;19993;-49
2022/05/23 14:08:07;;;;;;;3.97;2.13;;;;;;;;;;6224797;23;20461;-50
2022/05/23 14:10:37;;;;;;;3.75;1.40;;;24.00;64.90;;;;;;6214438;23;20447;-50
2022/05/23 14:13:03;;;;;;;2.13;1.42;;;;;;;;;;6214496;23;19993;-50
2022/05/23 14:15:30;;;;;;;2.97;1.85;;;23.70;61.60;;;;;;6214647;23;20046;-49
2022/05/23 14:18:00;;;;;;;4.78;1.80;;;23.70;93.20;;;;;;6215024;23;20054;-50
2022/05/23 14:20:33;;;;;;;5.20;1.80;;;23.80;93.30;;;;;;6224707;23;19993;-48
2022/05/23 14:23:01;;;;;;;3.28;1.85;;;23.60;64.00;;;;;;6224806;23;20004;-49
2022/05/23 14:25:33;;;;;;;2.92;1.75;;;23.60;62.00;;;;;;6224782;23;20059;-49
2022/05/23 14:28:07;;;;;;;3.25;1.88;;;23.60;62.30;;;;;;6215028;23;20000;-49
2022/05/23 14:30:35;;;;;;;4.75;1.90;;;;;;;;;;6215042;23;19996;-50
2022/05/23 14:33:21;;;;;;;3.17;1.92;;;23.60;59.20;;;;;;6214799;23;20024;-48
2022/05/23 14:36:08;;;;;;;2.30;1.92;;;23.40;66.10;;;;;;6188065;23;20079;-50